sensor_id;sensor_type;location;lat;lon;timestamp;pressure;altitude;pressure_sealevel;temperature;humidity
17764;BME280;22245;52.832;13.816;2023-10-08T00:03:10;101554.31;;;11.67;100.00
17764;BME280;22245;52.832;13.816;2023-10-08T00:06:33;101555.91;;;11.70;100.00
17764;BME280;22245;52.832;13.816;2023-10-08T00:09:55;101548.72;;;11.70;100.00
17764;BME280;22245;52.832;13.816;2023-10-08T00:13:16;101540.22;;;11.65;100.00
17764;BME280;22245;52.832;13.816;2023-10-08T00:16:37;101539.25;;;11.66;100.00
17764;BME280;22245;52.832;13.816;2023-10-08T00:20:00;101536.34;;;11.69;100.00
17764;BME280;22245;52.832;13.816;2023-10-08T00:23:25;101551.41;;;11.70;100.00
17764;BME280;22245;52.832;13.816;2023-10-08T00:26:46;101564.75;;;11.70;100.00
17764;BME280;22245;52.832;13.816;2023-10-08T00:30:09;101587.06;;;11.69;100.00
17764;BME280;22245;52.832;13.816;2023-10-08T00:33:38;101607.66;;;11.67;100.00
17764;BME280;22245;52.832;13.816;2023-10-08T00:37:00;101607.19;;;11.62;100.00
17764;BME280;22245;52.832;13.816;2023-10-08T00:40:24;101594.81;;;11.61;100.00
17764;BME280;22245;52.832;13.816;2023-10-08T00:43:46;101598.44;;;11.60;100.00
17764;BME280;22245;52.832;13.816;2023-10-08T00:47:07;101604.63;;;11.61;100.00
17764;BME280;22245;52.832;13.816;2023-10-08T00:50:32;101601.09;;;11.60;100.00
17764;BME280;22245;52.832;13.816;2023-10-08T00:54:04;101617.00;;;11.62;100.00
17764;BME280;22245;52.832;13.816;2023-10-08T00:57:30;101604.28;;;11.65;100.00
17764;BME280;22245;52.832;13.816;2023-10-08T01:00:55;101589.13;;;11.66;100.00
17764;BME280;22245;52.832;13.816;2023-10-08T01:04:21;101580.38;;;11.64;100.00
17764;BME280;22245;52.832;13.816;2023-10-08T01:07:47;101583.66;;;11.67;100.00
17764;BME280;22245;52.832;13.816;2023-10-08T01:11:21;101584.63;;;11.66;100.00
17764;BME280;22245;52.832;13.816;2023-10-08T01:14:53;101575.88;;;11.64;100.00
17764;BME280;22245;52.832;13.816;2023-10-08T01:18:16;101586.56;;;11.64;100.00
17764;BME280;22245;52.832;13.816;2023-10-08T01:21:39;101606.84;;;11.67;100.00
17764;BME280;22245;52.832;13.816;2023-10-08T01:25:02;101606.09;;;11.65;100.00
17764;BME280;22245;52.832;13.816;2023-10-08T01:28:23;101608.78;;;11.65;100.00
17764;BME280;22245;52.832;13.816;2023-10-08T01:31:48;101626.59;;;11.64;100.00
17764;BME280;22245;52.832;13.816;2023-10-08T01:35:10;101638.47;;;11.60;100.00
17764;BME280;22245;52.832;13.816;2023-10-08T01:38:43;101665.63;;;11.65;100.00
17764;BME280;22245;52.832;13.816;2023-10-08T01:42:11;101663.22;;;11.62;100.00
17764;BME280;22245;52.832;13.816;2023-10-08T01:45:37;101672.41;;;11.58;100.00
17764;BME280;22245;52.832;13.816;2023-10-08T01:49:04;101694.72;;;11.57;100.00
17764;BME280;22245;52.832;13.816;2023-10-08T01:52:33;101673.38;;;11.57;100.00
17764;BME280;22245;52.832;13.816;2023-10-08T01:55:55;101695.03;;;11.52;100.00
17764;BME280;22245;52.832;13.816;2023-10-08T01:59:19;101711.06;;;11.52;100.00
17764;BME280;22245;52.832;13.816;2023-10-08T02:02:41;101701.25;;;11.53;100.00
17764;BME280;22245;52.832;13.816;2023-10-08T02:06:03;101671.16;;;11.51;100.00
17764;BME280;22245;52.832;13.816;2023-10-08T02:09:26;101676.00;;;11.46;100.00
17764;BME280;22245;52.832;13.816;2023-10-08T02:12:48;101726.47;;;11.49;100.00
17764;BME280;22245;52.832;13.816;2023-10-08T02:16:10;101706.81;;;11.50;100.00
17764;BME280;22245;52.832;13.816;2023-10-08T02:19:32;101723.88;;;11.47;100.00
17764;BME280;22245;52.832;13.816;2023-10-08T02:22:55;101734.16;;;11.40;100.00
17764;BME280;22245;52.832;13.816;2023-10-08T02:26:16;101746.31;;;11.44;100.00
17764;BME280;22245;52.832;13.816;2023-10-08T02:29:39;101759.16;;;11.39;100.00
17764;BME280;22245;52.832;13.816;2023-10-08T02:33:04;101757.00;;;11.44;100.00
17764;BME280;22245;52.832;13.816;2023-10-08T02:36:34;101766.78;;;11.44;100.00
17764;BME280;22245;52.832;13.816;2023-10-08T02:39:57;101742.03;;;11.42;100.00
17764;BME280;22245;52.832;13.816;2023-10-08T02:43:19;101716.47;;;11.39;100.00
17764;BME280;22245;52.832;13.816;2023-10-08T02:46:42;101745.06;;;11.37;100.00
17764;BME280;22245;52.832;13.816;2023-10-08T02:50:07;101731.59;;;11.39;100.00
17764;BME280;22245;52.832;13.816;2023-10-08T02:53:29;101742.41;;;11.37;100.00
17764;BME280;22245;52.832;13.816;2023-10-08T02:56:52;101745.91;;;11.38;100.00
17764;BME280;22245;52.832;13.816;2023-10-08T03:00:18;101753.91;;;11.38;100.00
17764;BME280;22245;52.832;13.816;2023-10-08T03:03:41;101752.28;;;11.35;100.00
17764;BME280;22245;52.832;13.816;2023-10-08T03:07:04;101785.81;;;11.39;100.00
17764;BME280;22245;52.832;13.816;2023-10-08T03:10:32;101747.94;;;11.34;100.00
17764;BME280;22245;52.832;13.816;2023-10-08T03:13:53;101745.25;;;11.34;100.00
17764;BME280;22245;52.832;13.816;2023-10-08T03:17:17;101778.00;;;11.36;100.00
17764;BME280;22245;52.832;13.816;2023-10-08T03:20:40;101780.06;;;11.33;100.00
17764;BME280;22245;52.832;13.816;2023-10-08T03:24:07;101767.78;;;11.30;100.00
17764;BME280;22245;52.832;13.816;2023-10-08T03:27:43;101785.50;;;11.31;100.00
17764;BME280;22245;52.832;13.816;2023-10-08T03:31:05;101798.59;;;11.34;100.00
17764;BME280;22245;52.832;13.816;2023-10-08T03:34:34;101796.91;;;11.33;100.00
17764;BME280;22245;52.832;13.816;2023-10-08T03:37:56;101803.31;;;11.31;100.00
17764;BME280;22245;52.832;13.816;2023-10-08T03:41:39;101794.47;;;11.30;99.81
17764;BME280;22245;52.832;13.816;2023-10-08T03:45:01;101812.59;;;11.25;100.00
17764;BME280;22245;52.832;13.816;2023-10-08T03:48:30;101829.78;;;11.21;100.00
17764;BME280;22245;52.832;13.816;2023-10-08T03:51:56;101822.09;;;11.16;99.54
17764;BME280;22245;52.832;13.816;2023-10-08T03:55:18;101848.88;;;11.14;99.79
17764;BME280;22245;52.832;13.816;2023-10-08T03:58:48;101851.78;;;11.11;99.34
17764;BME280;22245;52.832;13.816;2023-10-08T04:02:09;101844.19;;;11.05;98.90
17764;BME280;22245;52.832;13.816;2023-10-08T04:05:36;101839.94;;;11.03;98.23
17764;BME280;22245;52.832;13.816;2023-10-08T04:09:05;101854.53;;;10.97;97.98
17764;BME280;22245;52.832;13.816;2023-10-08T04:12:37;101862.84;;;10.92;97.91
17764;BME280;22245;52.832;13.816;2023-10-08T04:16:06;101872.13;;;10.86;98.09
17764;BME280;22245;52.832;13.816;2023-10-08T04:19:27;101865.00;;;10.87;98.43
17764;BME280;22245;52.832;13.816;2023-10-08T04:22:48;101868.91;;;10.81;98.58
17764;BME280;22245;52.832;13.816;2023-10-08T04:26:10;101884.25;;;10.78;98.08
17764;BME280;22245;52.832;13.816;2023-10-08T04:29:33;101894.50;;;10.71;97.89
17764;BME280;22245;52.832;13.816;2023-10-08T04:32:59;101907.28;;;10.66;97.76
17764;BME280;22245;52.832;13.816;2023-10-08T04:36:26;101924.41;;;10.62;98.27
17764;BME280;22245;52.832;13.816;2023-10-08T04:39:48;101923.75;;;10.58;98.49
17764;BME280;22245;52.832;13.816;2023-10-08T04:43:20;101932.16;;;10.52;98.46
17764;BME280;22245;52.832;13.816;2023-10-08T04:46:45;101938.66;;;10.48;98.84
17764;BME280;22245;52.832;13.816;2023-10-08T04:50:13;101939.81;;;10.44;98.19
17764;BME280;22245;52.832;13.816;2023-10-08T04:53:39;101928.53;;;10.38;98.18
17764;BME280;22245;52.832;13.816;2023-10-08T04:57:04;101934.19;;;10.34;98.21
17764;BME280;22245;52.832;13.816;2023-10-08T05:00:28;101941.72;;;10.27;98.97
17764;BME280;22245;52.832;13.816;2023-10-08T05:04:04;101950.78;;;10.24;98.74
17764;BME280;22245;52.832;13.816;2023-10-08T05:07:47;101953.16;;;10.14;98.79
17764;BME280;22245;52.832;13.816;2023-10-08T05:11:26;101970.38;;;10.09;98.87
17764;BME280;22245;52.832;13.816;2023-10-08T05:15:07;101962.69;;;10.04;98.34
17764;BME280;22245;52.832;13.816;2023-10-08T05:18:45;101965.84;;;9.96;98.12
17764;BME280;22245;52.832;13.816;2023-10-08T05:22:34;101984.75;;;9.92;97.86
17764;BME280;22245;52.832;13.816;2023-10-08T05:26:06;101995.78;;;9.85;97.86
17764;BME280;22245;52.832;13.816;2023-10-08T05:29:29;102010.22;;;9.81;97.42
17764;BME280;22245;52.832;13.816;2023-10-08T05:33:12;102018.47;;;9.77;97.41
17764;BME280;22245;52.832;13.816;2023-10-08T05:36:45;102020.56;;;9.72;96.66
17764;BME280;22245;52.832;13.816;2023-10-08T05:40:41;102035.19;;;9.64;96.76
17764;BME280;22245;52.832;13.816;2023-10-08T05:44:25;102040.13;;;9.56;96.65
17764;BME280;22245;52.832;13.816;2023-10-08T05:47:59;102032.53;;;9.50;96.84
17764;BME280;22245;52.832;13.816;2023-10-08T05:51:35;102056.81;;;9.44;97.59
17764;BME280;22245;52.832;13.816;2023-10-08T05:55:25;102052.72;;;9.38;97.87
17764;BME280;22245;52.832;13.816;2023-10-08T05:58:46;102065.31;;;9.34;98.48
17764;BME280;22245;52.832;13.816;2023-10-08T06:02:23;102077.97;;;9.31;99.03
17764;BME280;22245;52.832;13.816;2023-10-08T06:05:49;102075.56;;;9.26;99.17
17764;BME280;22245;52.832;13.816;2023-10-08T06:09:27;102082.94;;;9.21;99.52
17764;BME280;22245;52.832;13.816;2023-10-08T06:12:56;102083.91;;;9.20;99.81
17764;BME280;22245;52.832;13.816;2023-10-08T06:16:22;102089.22;;;9.20;99.66
17764;BME280;22245;52.832;13.816;2023-10-08T06:20:03;102091.59;;;9.24;99.93
17764;BME280;22245;52.832;13.816;2023-10-08T06:23:30;102103.09;;;9.25;99.66
17764;BME280;22245;52.832;13.816;2023-10-08T06:26:55;102116.19;;;9.28;99.54
17764;BME280;22245;52.832;13.816;2023-10-08T06:30:17;102129.41;;;9.30;99.17
17764;BME280;22245;52.832;13.816;2023-10-08T06:33:39;102147.94;;;9.31;98.74
17764;BME280;22245;52.832;13.816;2023-10-08T06:37:03;102145.09;;;9.34;98.63
17764;BME280;22245;52.832;13.816;2023-10-08T06:40:27;102147.69;;;9.36;98.41
17764;BME280;22245;52.832;13.816;2023-10-08T06:44:04;102158.22;;;9.37;98.33
17764;BME280;22245;52.832;13.816;2023-10-08T06:47:26;102156.66;;;9.33;98.58
17764;BME280;22245;52.832;13.816;2023-10-08T06:50:51;102161.03;;;9.34;98.99
17764;BME280;22245;52.832;13.816;2023-10-08T06:54:19;102168.06;;;9.35;99.69
17764;BME280;22245;52.832;13.816;2023-10-08T06:57:43;102169.59;;;9.39;100.00
17764;BME280;22245;52.832;13.816;2023-10-08T07:01:04;102173.91;;;9.42;100.00
17764;BME280;22245;52.832;13.816;2023-10-08T07:04:29;102175.25;;;9.49;99.66
17764;BME280;22245;52.832;13.816;2023-10-08T07:07:51;102193.44;;;9.57;98.80
17764;BME280;22245;52.832;13.816;2023-10-08T07:11:14;102196.50;;;9.65;98.43
17764;BME280;22245;52.832;13.816;2023-10-08T07:14:38;102202.34;;;9.72;98.18
17764;BME280;22245;52.832;13.816;2023-10-08T07:18:02;102201.09;;;9.78;98.54
17764;BME280;22245;52.832;13.816;2023-10-08T07:21:30;102208.84;;;9.82;97.97
17764;BME280;22245;52.832;13.816;2023-10-08T07:25:05;102219.22;;;9.87;98.49
17764;BME280;22245;52.832;13.816;2023-10-08T07:28:30;102223.31;;;9.93;98.03
17764;BME280;22245;52.832;13.816;2023-10-08T07:31:53;102228.00;;;10.04;97.14
17764;BME280;22245;52.832;13.816;2023-10-08T07:35:15;102236.31;;;10.13;94.96
17764;BME280;22245;52.832;13.816;2023-10-08T07:38:44;102239.63;;;10.17;95.38
17764;BME280;22245;52.832;13.816;2023-10-08T07:42:07;102247.16;;;10.25;95.30
17764;BME280;22245;52.832;13.816;2023-10-08T07:45:30;102251.16;;;10.32;94.94
17764;BME280;22245;52.832;13.816;2023-10-08T07:48:55;102249.94;;;10.38;93.86
17764;BME280;22245;52.832;13.816;2023-10-08T07:52:18;102260.19;;;10.46;92.70
17764;BME280;22245;52.832;13.816;2023-10-08T07:55:39;102252.75;;;10.51;87.85
17764;BME280;22245;52.832;13.816;2023-10-08T07:59:01;102265.69;;;10.57;85.22
17764;BME280;22245;52.832;13.816;2023-10-08T08:02:29;102270.56;;;10.65;87.14
17764;BME280;22245;52.832;13.816;2023-10-08T08:05:51;102279.03;;;10.71;85.96
17764;BME280;22245;52.832;13.816;2023-10-08T08:09:14;102268.84;;;10.78;84.90
17764;BME280;22245;52.832;13.816;2023-10-08T08:12:39;102278.19;;;10.85;86.93
17764;BME280;22245;52.832;13.816;2023-10-08T08:16:02;102278.75;;;10.91;87.10
17764;BME280;22245;52.832;13.816;2023-10-08T08:19:38;102290.72;;;10.98;84.20
17764;BME280;22245;52.832;13.816;2023-10-08T08:22:59;102294.09;;;11.02;83.67
17764;BME280;22245;52.832;13.816;2023-10-08T08:26:27;102295.41;;;11.09;80.03
17764;BME280;22245;52.832;13.816;2023-10-08T08:29:49;102304.91;;;11.13;78.88
17764;BME280;22245;52.832;13.816;2023-10-08T08:33:11;102307.41;;;11.16;78.01
17764;BME280;22245;52.832;13.816;2023-10-08T08:36:34;102298.06;;;11.23;77.54
17764;BME280;22245;52.832;13.816;2023-10-08T08:39:58;102302.91;;;11.31;70.01
17764;BME280;22245;52.832;13.816;2023-10-08T08:43:20;102302.81;;;11.33;73.56
17764;BME280;22245;52.832;13.816;2023-10-08T08:46:42;102313.28;;;11.36;74.73
17764;BME280;22245;52.832;13.816;2023-10-08T08:50:06;102316.44;;;11.42;77.21
17764;BME280;22245;52.832;13.816;2023-10-08T08:53:30;102311.66;;;11.48;78.02
17764;BME280;22245;52.832;13.816;2023-10-08T08:56:54;102317.63;;;11.51;70.40
17764;BME280;22245;52.832;13.816;2023-10-08T09:00:18;102320.03;;;11.56;66.04
17764;BME280;22245;52.832;13.816;2023-10-08T09:03:40;102321.34;;;11.63;68.40
17764;BME280;22245;52.832;13.816;2023-10-08T09:07:02;102314.75;;;11.69;70.33
17764;BME280;22245;52.832;13.816;2023-10-08T09:10:26;102316.34;;;11.71;67.43
17764;BME280;22245;52.832;13.816;2023-10-08T09:13:48;102317.88;;;11.76;68.26
17764;BME280;22245;52.832;13.816;2023-10-08T09:17:10;102323.78;;;11.81;68.28
17764;BME280;22245;52.832;13.816;2023-10-08T09:20:36;102329.66;;;11.86;67.63
17764;BME280;22245;52.832;13.816;2023-10-08T09:24:04;102327.84;;;11.86;67.54
17764;BME280;22245;52.832;13.816;2023-10-08T09:27:32;102339.19;;;11.90;66.73
17764;BME280;22245;52.832;13.816;2023-10-08T09:30:57;102333.84;;;11.90;66.45
17764;BME280;22245;52.832;13.816;2023-10-08T09:34:19;102330.03;;;11.94;68.88
17764;BME280;22245;52.832;13.816;2023-10-08T09:37:41;102330.31;;;12.04;69.74
17764;BME280;22245;52.832;13.816;2023-10-08T09:41:02;102332.66;;;12.09;68.87
17764;BME280;22245;52.832;13.816;2023-10-08T09:44:25;102336.94;;;12.11;61.39
17764;BME280;22245;52.832;13.816;2023-10-08T09:47:49;102335.78;;;12.15;60.90
17764;BME280;22245;52.832;13.816;2023-10-08T09:51:13;102334.19;;;12.13;59.92
17764;BME280;22245;52.832;13.816;2023-10-08T09:54:37;102337.19;;;12.21;61.80
17764;BME280;22245;52.832;13.816;2023-10-08T09:58:03;102339.66;;;12.24;58.73
17764;BME280;22245;52.832;13.816;2023-10-08T10:01:28;102338.91;;;12.22;62.39
17764;BME280;22245;52.832;13.816;2023-10-08T10:04:54;102347.25;;;12.30;61.11
17764;BME280;22245;52.832;13.816;2023-10-08T10:08:16;102342.66;;;12.33;61.24
17764;BME280;22245;52.832;13.816;2023-10-08T10:11:39;102348.47;;;12.39;61.15
17764;BME280;22245;52.832;13.816;2023-10-08T10:15:02;102351.00;;;12.41;59.54
17764;BME280;22245;52.832;13.816;2023-10-08T10:18:33;102354.44;;;12.43;60.02
17764;BME280;22245;52.832;13.816;2023-10-08T10:21:54;102361.28;;;12.47;58.72
17764;BME280;22245;52.832;13.816;2023-10-08T10:25:34;102371.69;;;12.52;58.61
17764;BME280;22245;52.832;13.816;2023-10-08T10:29:22;102366.13;;;12.55;55.18
17764;BME280;22245;52.832;13.816;2023-10-08T10:32:47;102364.84;;;12.61;56.02
17764;BME280;22245;52.832;13.816;2023-10-08T10:36:11;102359.94;;;12.67;56.64
17764;BME280;22245;52.832;13.816;2023-10-08T10:39:33;102371.41;;;12.69;54.98
17764;BME280;22245;52.832;13.816;2023-10-08T10:43:01;102365.84;;;12.72;54.16
17764;BME280;22245;52.832;13.816;2023-10-08T10:46:27;102368.94;;;12.79;53.05
17764;BME280;22245;52.832;13.816;2023-10-08T10:49:52;102367.13;;;12.80;51.45
17764;BME280;22245;52.832;13.816;2023-10-08T10:53:18;102369.38;;;12.86;51.40
17764;BME280;22245;52.832;13.816;2023-10-08T10:56:42;102378.13;;;12.88;50.55
17764;BME280;22245;52.832;13.816;2023-10-08T11:00:06;102386.81;;;12.92;49.25
17764;BME280;22245;52.832;13.816;2023-10-08T11:03:59;102375.91;;;12.95;47.16
17764;BME280;22245;52.832;13.816;2023-10-08T11:07:23;102378.81;;;12.92;49.37
17764;BME280;22245;52.832;13.816;2023-10-08T11:10:47;102375.25;;;12.91;47.75
17764;BME280;22245;52.832;13.816;2023-10-08T11:14:12;102374.50;;;12.89;47.78
17764;BME280;22245;52.832;13.816;2023-10-08T11:17:39;102370.56;;;12.95;47.45
17764;BME280;22245;52.832;13.816;2023-10-08T11:21:09;102368.28;;;13.01;48.04
17764;BME280;22245;52.832;13.816;2023-10-08T11:24:37;102372.38;;;13.07;48.57
17764;BME280;22245;52.832;13.816;2023-10-08T11:28:04;102371.94;;;13.13;48.66
17764;BME280;22245;52.832;13.816;2023-10-08T11:31:29;102359.09;;;13.18;46.87
17764;BME280;22245;52.832;13.816;2023-10-08T11:34:55;102362.41;;;13.22;46.99
17764;BME280;22245;52.832;13.816;2023-10-08T11:38:19;102361.44;;;13.23;47.77
17764;BME280;22245;52.832;13.816;2023-10-08T11:41:43;102369.78;;;13.31;45.71
17764;BME280;22245;52.832;13.816;2023-10-08T11:45:12;102368.28;;;13.27;48.24
17764;BME280;22245;52.832;13.816;2023-10-08T11:48:39;102370.75;;;13.30;46.93
17764;BME280;22245;52.832;13.816;2023-10-08T11:52:07;102369.78;;;13.31;45.68
17764;BME280;22245;52.832;13.816;2023-10-08T11:55:33;102385.00;;;13.31;45.96
17764;BME280;22245;52.832;13.816;2023-10-08T11:58:56;102385.84;;;13.31;45.80
17764;BME280;22245;52.832;13.816;2023-10-08T12:02:19;102385.22;;;13.28;48.04
17764;BME280;22245;52.832;13.816;2023-10-08T12:05:41;102392.28;;;13.29;47.56
17764;BME280;22245;52.832;13.816;2023-10-08T12:09:07;102392.06;;;13.32;47.18
17764;BME280;22245;52.832;13.816;2023-10-08T12:12:33;102393.41;;;13.38;47.65
17764;BME280;22245;52.832;13.816;2023-10-08T12:15:56;102405.63;;;13.42;47.72
17764;BME280;22245;52.832;13.816;2023-10-08T12:19:28;102405.56;;;13.43;48.66
17764;BME280;22245;52.832;13.816;2023-10-08T12:22:52;102401.03;;;13.44;46.79
17764;BME280;22245;52.832;13.816;2023-10-08T12:26:14;102410.91;;;13.43;46.45
17764;BME280;22245;52.832;13.816;2023-10-08T12:29:39;102397.72;;;13.40;47.66
17764;BME280;22245;52.832;13.816;2023-10-08T12:33:04;102397.72;;;13.40;47.58
17764;BME280;22245;52.832;13.816;2023-10-08T12:36:28;102398.50;;;13.42;47.44
17764;BME280;22245;52.832;13.816;2023-10-08T12:39:53;102387.78;;;13.42;47.63
17764;BME280;22245;52.832;13.816;2023-10-08T12:43:21;102383.81;;;13.48;48.19
17764;BME280;22245;52.832;13.816;2023-10-08T12:46:42;102391.84;;;13.48;47.81
17764;BME280;22245;52.832;13.816;2023-10-08T12:50:05;102373.22;;;13.46;48.75
17764;BME280;22245;52.832;13.816;2023-10-08T12:53:29;102368.00;;;13.45;47.17
17764;BME280;22245;52.832;13.816;2023-10-08T12:56:55;102368.50;;;13.50;47.12
17764;BME280;22245;52.832;13.816;2023-10-08T13:00:19;102360.34;;;13.52;46.46
17764;BME280;22245;52.832;13.816;2023-10-08T13:03:44;102353.50;;;13.48;46.59
17764;BME280;22245;52.832;13.816;2023-10-08T13:07:08;102355.97;;;13.51;46.05
17764;BME280;22245;52.832;13.816;2023-10-08T13:10:33;102353.06;;;13.54;46.37
17764;BME280;22245;52.832;13.816;2023-10-08T13:13:56;102355.97;;;13.51;45.56
17764;BME280;22245;52.832;13.816;2023-10-08T13:17:18;102347.19;;;13.49;45.64
17764;BME280;22245;52.832;13.816;2023-10-08T13:20:39;102353.94;;;13.54;46.31
17764;BME280;22245;52.832;13.816;2023-10-08T13:24:05;102359.38;;;13.53;46.58
17764;BME280;22245;52.832;13.816;2023-10-08T13:27:31;102359.28;;;13.54;44.78
17764;BME280;22245;52.832;13.816;2023-10-08T13:30:53;102348.69;;;13.53;46.84
17764;BME280;22245;52.832;13.816;2023-10-08T13:34:15;102353.94;;;13.54;46.89
17764;BME280;22245;52.832;13.816;2023-10-08T13:37:37;102348.34;;;13.57;46.28
17764;BME280;22245;52.832;13.816;2023-10-08T13:41:00;102345.78;;;13.56;43.91
17764;BME280;22245;52.832;13.816;2023-10-08T13:44:27;102356.19;;;13.48;45.45
17764;BME280;22245;52.832;13.816;2023-10-08T13:47:50;102350.63;;;13.51;45.63
17764;BME280;22245;52.832;13.816;2023-10-08T13:51:12;102345.16;;;13.52;46.05
17764;BME280;22245;52.832;13.816;2023-10-08T13:54:35;102353.81;;;13.56;46.50
17764;BME280;22245;52.832;13.816;2023-10-08T13:58:02;102356.03;;;13.62;46.58
17764;BME280;22245;52.832;13.816;2023-10-08T14:01:24;102360.41;;;13.63;46.07
17764;BME280;22245;52.832;13.816;2023-10-08T14:04:47;102364.63;;;13.67;46.33
17764;BME280;22245;52.832;13.816;2023-10-08T14:08:11;102361.34;;;13.75;46.19
17764;BME280;22245;52.832;13.816;2023-10-08T14:11:35;102365.88;;;13.74;44.89
17764;BME280;22245;52.832;13.816;2023-10-08T14:14:57;102367.06;;;13.70;43.97
17764;BME280;22245;52.832;13.816;2023-10-08T14:18:20;102366.56;;;13.65;45.35
17764;BME280;22245;52.832;13.816;2023-10-08T14:21:47;102355.06;;;13.63;44.19
17764;BME280;22245;52.832;13.816;2023-10-08T14:25:13;102349.84;;;13.62;44.54
17764;BME280;22245;52.832;13.816;2023-10-08T14:28:38;102362.03;;;13.66;44.12
17764;BME280;22245;52.832;13.816;2023-10-08T14:32:04;102362.16;;;13.64;43.40
17764;BME280;22245;52.832;13.816;2023-10-08T14:35:30;102355.28;;;13.60;46.00
17764;BME280;22245;52.832;13.816;2023-10-08T14:39:09;102359.25;;;13.67;46.51
17764;BME280;22245;52.832;13.816;2023-10-08T14:42:49;102354.41;;;13.72;44.53
17764;BME280;22245;52.832;13.816;2023-10-08T14:46:21;102355.38;;;13.71;44.30
17764;BME280;22245;52.832;13.816;2023-10-08T14:49:44;102360.09;;;13.68;44.36
17764;BME280;22245;52.832;13.816;2023-10-08T14:53:07;102359.03;;;13.70;45.75
17764;BME280;22245;52.832;13.816;2023-10-08T14:56:29;102365.88;;;13.74;45.71
17764;BME280;22245;52.832;13.816;2023-10-08T14:59:53;102364.16;;;13.73;44.48
17764;BME280;22245;52.832;13.816;2023-10-08T15:03:16;102358.91;;;13.72;45.17
17764;BME280;22245;52.832;13.816;2023-10-08T15:06:40;102358.81;;;13.73;46.43
17764;BME280;22245;52.832;13.816;2023-10-08T15:10:03;102356.88;;;13.75;46.68
17764;BME280;22245;52.832;13.816;2023-10-08T15:13:26;102362.22;;;13.75;48.05
17764;BME280;22245;52.832;13.816;2023-10-08T15:16:49;102374.53;;;13.78;47.12
17764;BME280;22245;52.832;13.816;2023-10-08T15:20:15;102376.13;;;13.81;47.74
17764;BME280;22245;52.832;13.816;2023-10-08T15:23:40;102379.66;;;13.81;48.11
17764;BME280;22245;52.832;13.816;2023-10-08T15:27:04;102372.59;;;13.80;48.39
17764;BME280;22245;52.832;13.816;2023-10-08T15:30:26;102371.09;;;13.76;47.57
17764;BME280;22245;52.832;13.816;2023-10-08T15:33:48;102375.84;;;13.72;48.02
17764;BME280;22245;52.832;13.816;2023-10-08T15:37:10;102381.41;;;13.69;48.21
17764;BME280;22245;52.832;13.816;2023-10-08T15:40:31;102382.50;;;13.67;48.88
17764;BME280;22245;52.832;13.816;2023-10-08T15:43:55;102380.13;;;13.62;49.77
17764;BME280;22245;52.832;13.816;2023-10-08T15:47:18;102393.66;;;13.60;50.77
17764;BME280;22245;52.832;13.816;2023-10-08T15:50:40;102383.47;;;13.53;53.13
17764;BME280;22245;52.832;13.816;2023-10-08T15:54:02;102389.28;;;13.46;57.43
17764;BME280;22245;52.832;13.816;2023-10-08T15:57:23;102389.91;;;13.37;58.87
17764;BME280;22245;52.832;13.816;2023-10-08T16:00:46;102400.31;;;13.29;60.62
17764;BME280;22245;52.832;13.816;2023-10-08T16:04:08;102402.09;;;13.15;61.18
17764;BME280;22245;52.832;13.816;2023-10-08T16:07:30;102396.66;;;13.04;62.50
17764;BME280;22245;52.832;13.816;2023-10-08T16:10:51;102401.91;;;12.93;64.79
17764;BME280;22245;52.832;13.816;2023-10-08T16:14:13;102404.66;;;12.78;65.97
17764;BME280;22245;52.832;13.816;2023-10-08T16:17:35;102412.00;;;12.62;67.56
17764;BME280;22245;52.832;13.816;2023-10-08T16:20:59;102403.09;;;12.48;68.03
17764;BME280;22245;52.832;13.816;2023-10-08T16:24:21;102409.47;;;12.33;68.92
17764;BME280;22245;52.832;13.816;2023-10-08T16:27:44;102413.03;;;12.19;69.50
17764;BME280;22245;52.832;13.816;2023-10-08T16:31:10;102419.28;;;12.05;70.05
17764;BME280;22245;52.832;13.816;2023-10-08T16:34:33;102416.97;;;11.98;71.55
17764;BME280;22245;52.832;13.816;2023-10-08T16:37:55;102409.56;;;11.89;72.42
17764;BME280;22245;52.832;13.816;2023-10-08T16:41:16;102404.06;;;11.78;73.33
17764;BME280;22245;52.832;13.816;2023-10-08T16:44:37;102398.53;;;11.66;72.31
17764;BME280;22245;52.832;13.816;2023-10-08T16:47:59;102398.16;;;11.58;73.06
17764;BME280;22245;52.832;13.816;2023-10-08T16:51:22;102403.88;;;11.52;73.55
17764;BME280;22245;52.832;13.816;2023-10-08T16:54:45;102400.84;;;11.43;74.34
17764;BME280;22245;52.832;13.816;2023-10-08T16:58:07;102394.94;;;11.38;74.58
17764;BME280;22245;52.832;13.816;2023-10-08T17:01:31;102402.47;;;11.32;74.77
17764;BME280;22245;52.832;13.816;2023-10-08T17:04:52;102395.69;;;11.26;75.43
17764;BME280;22245;52.832;13.816;2023-10-08T17:08:15;102404.25;;;11.17;75.31
17764;BME280;22245;52.832;13.816;2023-10-08T17:11:37;102403.78;;;11.10;75.53
17764;BME280;22245;52.832;13.816;2023-10-08T17:15:00;102413.47;;;11.11;74.54
17764;BME280;22245;52.832;13.816;2023-10-08T17:18:26;102418.94;;;11.09;75.11
17764;BME280;22245;52.832;13.816;2023-10-08T17:21:50;102420.25;;;11.02;76.57
17764;BME280;22245;52.832;13.816;2023-10-08T17:25:13;102421.38;;;10.98;76.48
17764;BME280;22245;52.832;13.816;2023-10-08T17:28:35;102417.16;;;10.94;77.05
17764;BME280;22245;52.832;13.816;2023-10-08T17:31:56;102405.09;;;10.88;78.37
17764;BME280;22245;52.832;13.816;2023-10-08T17:35:19;102407.25;;;10.81;79.10
17764;BME280;22245;52.832;13.816;2023-10-08T17:38:41;102402.88;;;10.80;79.46